Time;durP1;ratioP1;P1;durP2;ratioP2;P2;SDS_P1;SDS_P2;PMS_P1;PMS_P2;Temp;Humidity;BMP_temperature;BMP_pressure;BME280_temperature;BME280_humidity;BME280_pressure;Samples;Min_cycle;Max_cycle;Signal;HPM_P1;HPM_P2
2023/08/18 00:02:20;;;;;;;;;;;23.80;1.00;;;;;;4879025;29;20444;-52
2023/08/18 00:04:47;;;;;;;;;;;23.80;1.00;;;;;;4881104;29;20352;-53
2023/08/18 00:07:14;;;;;;;;;;;23.80;1.00;;;;;;4881045;29;19930;-47
2023/08/18 00:09:45;;;;;;;;;;;23.80;1.00;;;;;;4881278;29;19972;-51
2023/08/18 00:12:11;;;;;;;;;;;23.80;1.00;;;;;;5232541;23;19939;-44
2023/08/18 00:14:38;;;;;;;;;;;23.80;1.00;;;;;;4917345;29;19994;-47
2023/08/18 00:17:05;;;;;;;;;;;23.80;1.00;;;;;;4899738;29;19924;-45
2023/08/18 00:19:31;;;;;;;;;;;23.80;1.00;;;;;;4899547;29;19923;-51
2023/08/18 00:21:58;;;;;;;;;;;23.80;1.00;;;;;;4899970;29;19930;-52
2023/08/18 00:24:25;;;;;;;;;;;23.80;1.00;;;;;;4891876;29;20399;-50
2023/08/18 00:26:51;;;;;;;;;;;23.80;1.00;;;;;;4899506;29;20311;-49
2023/08/18 00:29:18;;;;;;;;;;;23.80;1.00;;;;;;4882029;29;20006;-51
2023/08/18 00:31:47;;;;;;;;;;;23.80;1.00;;;;;;4882519;29;20054;-50
2023/08/18 00:34:13;;;;;;;;;;;23.80;1.00;;;;;;4882675;29;19942;-48
2023/08/18 00:36:40;;;;;;;;;;;23.70;1.00;;;;;;4882403;29;19930;-53
2023/08/18 00:39:07;;;;;;;;;;;23.70;1.00;;;;;;4882396;29;20372;-49
2023/08/18 00:41:34;;;;;;;;;;;23.70;1.00;;;;;;4882271;29;19930;-53
2023/08/18 00:44:01;;;;;;;;;;;23.70;1.00;;;;;;5105195;23;19927;-45
2023/08/18 00:46:29;;;;;;;;;;;23.70;1.00;;;;;;4898050;29;20030;-51
2023/08/18 00:48:58;;;;;;;;;;;23.70;1.00;;;;;;4897891;29;19934;-52
2023/08/18 00:51:25;;;;;;;;;;;23.70;1.00;;;;;;4898865;29;20010;-50
2023/08/18 00:53:53;;;;;;;;;;;23.70;1.00;;;;;;4897934;29;19923;-47
2023/08/18 00:56:20;;;;;;;;;;;23.70;1.00;;;;;;4899006;29;19980;-52
2023/08/18 00:58:46;;;;;;;;;;;23.70;1.00;;;;;;4897682;29;19930;-50
2023/08/18 01:01:13;;;;;;;;;;;23.70;1.00;;;;;;4898888;29;20462;-48
2023/08/18 01:03:41;;;;;;;;;;;23.70;1.00;;;;;;4899000;29;19930;-49
2023/08/18 01:06:08;;;;;;;;;;;23.70;1.00;;;;;;4897535;29;20030;-46
2023/08/18 01:08:34;;;;;;;;;;;23.70;1.00;;;;;;4897419;29;19961;-49
2023/08/18 01:11:09;;;;;;;;;;;23.70;1.00;;;;;;4898598;29;20002;-53
2023/08/18 01:13:46;;;;;;;;;;;23.70;1.00;;;;;;4898964;29;19930;-52
2023/08/18 01:16:16;;;;;;;;;;;23.70;1.00;;;;;;5053595;23;19922;-46
2023/08/18 01:18:42;;;;;;;;;;;23.70;1.00;;;;;;4908702;29;20331;-48
2023/08/18 01:21:10;;;;;;;;;;;23.60;1.00;;;;;;4917041;29;20371;-50
2023/08/18 01:23:38;;;;;;;;;;;23.60;1.00;;;;;;4900465;29;20017;-49
2023/08/18 01:26:05;;;;;;;;;;;23.60;1.00;;;;;;4887667;29;19923;-51
2023/08/18 01:28:32;;;;;;;;;;;23.60;1.00;;;;;;4881641;29;20360;-51
2023/08/18 01:31:04;;;;;;;;;;;23.60;1.00;;;;;;4873623;29;20396;-53
2023/08/18 01:33:32;;;;;;;;;;;23.60;1.00;;;;;;4898368;29;20447;-51
2023/08/18 01:36:02;;;;;;;;;;;23.60;1.00;;;;;;4898342;29;20014;-52
2023/08/18 01:38:30;;;;;;;;;;;23.60;1.00;;;;;;4898228;29;19946;-53
2023/08/18 01:40:57;;;;;;;;;;;23.60;1.00;;;;;;4880292;29;19983;-51
2023/08/18 01:43:24;;;;;;;;;;;23.60;1.00;;;;;;4865955;29;19924;-52
2023/08/18 01:45:51;;;;;;;;;;;23.60;1.00;;;;;;4881328;29;20356;-53
2023/08/18 01:48:17;;;;;;;;;;;23.60;1.00;;;;;;4890236;29;20014;-50
2023/08/18 01:50:44;;;;;;;;;;;23.60;1.00;;;;;;4880538;29;19937;-51
2023/08/18 01:53:11;;;;;;;;;;;23.60;1.00;;;;;;4898009;29;19931;-49
2023/08/18 01:55:38;;;;;;;;;;;23.60;1.00;;;;;;4881342;29;20344;-53
2023/08/18 01:58:05;;;;;;;;;;;23.60;1.00;;;;;;4881299;29;20299;-52
2023/08/18 02:00:31;;;;;;;;;;;23.60;1.00;;;;;;4880902;29;19923;-47
2023/08/18 02:02:58;;;;;;;;;;;23.60;1.00;;;;;;4897807;29;20273;-51
2023/08/18 02:05:25;;;;;;;;;;;23.60;1.00;;;;;;4880838;29;19931;-51
2023/08/18 02:07:53;;;;;;;;;;;23.60;1.00;;;;;;4881074;29;19971;-51
2023/08/18 02:10:20;;;;;;;;;;;23.60;1.00;;;;;;4898269;29;19924;-52
2023/08/18 02:12:47;;;;;;;;;;;23.60;1.00;;;;;;4880691;29;19972;-53
2023/08/18 02:15:14;;;;;;;;;;;23.60;1.00;;;;;;4880987;29;20026;-52
2023/08/18 02:20:43;;;;;;;;;;;23.60;1.00;;;;;;4932925;23;19970;-50
2023/08/18 02:23:09;;;;;;;;;;;23.60;1.00;;;;;;4916439;29;19930;-52
2023/08/18 02:25:36;;;;;;;;;;;23.60;1.00;;;;;;4907407;29;20010;-51
2023/08/18 02:28:03;;;;;;;;;;;23.50;1.00;;;;;;4880750;29;19983;-52
2023/08/18 02:30:30;;;;;;;;;;;23.50;1.00;;;;;;4880428;29;19930;-49
2023/08/18 02:32:56;;;;;;;;;;;23.60;1.00;;;;;;4880536;29;19930;-51
2023/08/18 02:35:24;;;;;;;;;;;23.50;1.00;;;;;;4897377;29;19930;-52
2023/08/18 02:37:51;;;;;;;;;;;23.50;1.00;;;;;;4881930;29;19971;-52
2023/08/18 02:40:18;;;;;;;;;;;23.50;1.00;;;;;;4897255;29;19955;-53
2023/08/18 02:42:45;;;;;;;;;;;23.50;1.00;;;;;;4897055;29;19927;-53
2023/08/18 02:45:12;;;;;;;;;;;23.50;1.00;;;;;;4880597;29;19927;-53
2023/08/18 02:47:38;;;;;;;;;;;23.50;1.00;;;;;;4897050;29;20006;-51
2023/08/18 02:50:06;;;;;;;;;;;23.50;1.00;;;;;;4949616;23;20853;-53
2023/08/18 02:52:33;;;;;;;;;;;23.50;1.00;;;;;;4932073;29;19923;-50
2023/08/18 02:54:59;;;;;;;;;;;23.50;1.00;;;;;;4913881;29;20398;-53
2023/08/18 02:57:26;;;;;;;;;;;23.50;1.00;;;;;;4915973;29;20034;-53
2023/08/18 02:59:53;;;;;;;;;;;23.50;1.00;;;;;;4915862;29;19929;-52
2023/08/18 03:02:21;;;;;;;;;;;23.50;1.00;;;;;;4898748;29;20017;-53
2023/08/18 03:04:48;;;;;;;;;;;23.50;1.00;;;;;;4898898;29;19974;-53
2023/08/18 03:07:15;;;;;;;;;;;23.50;1.00;;;;;;4915922;29;19930;-53
2023/08/18 03:09:42;;;;;;;;;;;23.40;1.00;;;;;;4898850;29;20019;-53
2023/08/18 03:12:09;;;;;;;;;;;23.50;1.00;;;;;;4915778;29;20343;-53
2023/08/18 03:14:35;;;;;;;;;;;23.40;1.00;;;;;;4899249;29;19927;-53
2023/08/18 03:17:02;;;;;;;;;;;23.50;1.00;;;;;;4915742;29;19931;-53
2023/08/18 03:19:30;;;;;;;;;;;23.40;1.00;;;;;;4899258;29;19927;-53
2023/08/18 03:21:57;;;;;;;;;;;23.50;1.00;;;;;;5297535;23;19923;-50
2023/08/18 03:24:24;;;;;;;;;;;23.40;1.00;;;;;;4888893;29;19923;-46
2023/08/18 03:26:51;;;;;;;;;;;23.40;1.00;;;;;;4876329;29;19932;-50
2023/08/18 03:29:19;;;;;;;;;;;23.40;1.00;;;;;;4876917;29;19946;-46
2023/08/18 03:31:45;;;;;;;;;;;23.40;1.00;;;;;;4876686;29;19955;-45
2023/08/18 03:34:12;;;;;;;;;;;23.40;1.00;;;;;;4877025;29;19924;-48
2023/08/18 03:36:39;;;;;;;;;;;23.40;1.00;;;;;;4876826;29;19928;-47
2023/08/18 03:39:06;;;;;;;;;;;23.40;1.00;;;;;;4876566;29;19930;-46
2023/08/18 03:41:33;;;;;;;;;;;23.40;1.00;;;;;;4876660;29;19987;-46
2023/08/18 03:44:00;;;;;;;;;;;23.40;1.00;;;;;;4877276;29;20355;-48
2023/08/18 03:46:27;;;;;;;;;;;23.40;1.00;;;;;;4877077;29;20312;-46
2023/08/18 03:48:56;;;;;;;;;;;23.40;1.00;;;;;;4878037;29;19988;-49
2023/08/18 03:51:23;;;;;;;;;;;23.40;1.00;;;;;;4876732;29;19927;-45
2023/08/18 03:53:50;;;;;;;;;;;23.40;1.00;;;;;;5069651;23;19951;-46
2023/08/18 03:56:17;;;;;;;;;;;23.40;1.00;;;;;;4884593;29;20116;-50
2023/08/18 03:58:43;;;;;;;;;;;23.40;1.00;;;;;;4896465;29;19923;-50
2023/08/18 04:01:10;;;;;;;;;;;23.40;1.00;;;;;;4896557;29;19955;-53
2023/08/18 04:03:39;;;;;;;;;;;23.40;1.00;;;;;;4880819;29;19927;-46
2023/08/18 04:06:06;;;;;;;;;;;23.40;1.00;;;;;;4883191;29;19970;-46
2023/08/18 04:08:34;;;;;;;;;;;23.40;1.00;;;;;;4890027;29;19979;-48
2023/08/18 04:11:00;;;;;;;;;;;23.40;1.00;;;;;;4875672;29;19930;-47
2023/08/18 04:13:27;;;;;;;;;;;23.40;1.00;;;;;;4860551;29;20463;-46
2023/08/18 04:15:54;;;;;;;;;;;23.30;1.00;;;;;;4880213;29;19924;-49
2023/08/18 04:18:21;;;;;;;;;;;23.30;1.00;;;;;;4886213;29;19923;-51
2023/08/18 04:20:47;;;;;;;;;;;23.30;1.00;;;;;;4872590;29;20307;-50
2023/08/18 04:23:15;;;;;;;;;;;23.30;1.00;;;;;;4877052;29;19930;-47
2023/08/18 04:25:42;;;;;;;;;;;23.20;1.00;;;;;;4907809;23;19923;-46
2023/08/18 04:28:10;;;;;;;;;;;23.20;1.00;;;;;;4881407;29;20307;-45
2023/08/18 04:30:37;;;;;;;;;;;23.20;1.00;;;;;;4881202;29;19975;-46
2023/08/18 04:33:07;;;;;;;;;;;23.20;1.00;;;;;;4882493;29;19923;-45
2023/08/18 04:35:34;;;;;;;;;;;23.10;1.00;;;;;;4899551;29;19930;-45
2023/08/18 04:38:01;;;;;;;;;;;23.10;1.00;;;;;;4882612;29;20364;-45
2023/08/18 04:40:28;;;;;;;;;;;23.10;1.00;;;;;;4882466;29;20018;-45
2023/08/18 04:42:55;;;;;;;;;;;23.10;1.00;;;;;;4889720;29;19923;-45
2023/08/18 04:45:23;;;;;;;;;;;23.10;1.00;;;;;;4881334;29;20380;-50
2023/08/18 04:47:50;;;;;;;;;;;23.10;1.00;;;;;;4881166;29;20018;-48
2023/08/18 04:50:17;;;;;;;;;;;23.10;1.00;;;;;;4881970;29;19923;-46
2023/08/18 04:52:44;;;;;;;;;;;23.10;1.00;;;;;;4881692;29;19975;-46
2023/08/18 04:55:11;;;;;;;;;;;23.10;1.00;;;;;;4969054;23;19924;-46
2023/08/18 04:57:37;;;;;;;;;;;23.10;1.00;;;;;;4871710;29;19924;-46
2023/08/18 05:00:06;;;;;;;;;;;23.10;1.00;;;;;;4858837;29;20332;-47
2023/08/18 05:02:33;;;;;;;;;;;23.10;1.00;;;;;;4877863;29;19935;-49
2023/08/18 05:05:00;;;;;;;;;;;23.10;1.00;;;;;;4877886;29;20366;-47
2023/08/18 05:07:27;;;;;;;;;;;23.10;1.00;;;;;;4877626;29;20015;-51
2023/08/18 05:09:54;;;;;;;;;;;23.10;1.00;;;;;;4879179;29;19959;-50
2023/08/18 05:12:21;;;;;;;;;;;23.10;1.00;;;;;;4879039;29;19924;-46
2023/08/18 05:14:48;;;;;;;;;;;23.10;1.00;;;;;;4880325;29;19935;-44
2023/08/18 05:17:15;;;;;;;;;;;23.10;1.00;;;;;;4880369;29;19935;-46
2023/08/18 05:19:41;;;;;;;;;;;23.10;1.00;;;;;;4880366;29;19970;-45
2023/08/18 05:22:08;;;;;;;;;;;23.10;1.00;;;;;;4880253;29;19927;-47
2023/08/18 05:24:35;;;;;;;;;;;23.10;1.00;;;;;;4880205;29;19927;-45
2023/08/18 05:27:01;;;;;;;;;;;23.10;1.00;;;;;;4873636;29;19939;-47
2023/08/18 05:29:28;;;;;;;;;;;23.10;1.00;;;;;;4870896;29;19949;-47
2023/08/18 05:31:55;;;;;;;;;;;23.10;1.00;;;;;;4879573;29;19928;-45
2023/08/18 05:34:21;;;;;;;;;;;23.10;1.00;;;;;;4879959;29;20001;-47
2023/08/18 05:36:50;;;;;;;;;;;23.10;1.00;;;;;;4879629;29;19930;-48
2023/08/18 05:39:16;;;;;;;;;;;23.10;1.00;;;;;;4879443;29;19923;-51
2023/08/18 05:41:43;;;;;;;;;;;23.10;1.00;;;;;;4879404;29;20400;-46
2023/08/18 05:44:10;;;;;;;;;;;23.10;1.00;;;;;;4875943;29;19946;-47
2023/08/18 05:46:37;;;;;;;;;;;23.10;1.00;;;;;;4879583;29;19959;-46
2023/08/18 05:49:04;;;;;;;;;;;23.10;1.00;;;;;;4878268;29;19935;-45
2023/08/18 05:51:30;;;;;;;;;;;23.10;1.00;;;;;;4879381;29;19924;-47
2023/08/18 05:53:57;;;;;;;;;;;23.10;1.00;;;;;;4879237;29;19979;-45
2023/08/18 05:56:24;;;;;;;;;;;23.10;1.00;;;;;;5106037;23;19931;-45
2023/08/18 05:58:50;;;;;;;;;;;23.10;1.00;;;;;;4914268;29;19954;-45
2023/08/18 06:01:17;;;;;;;;;;;23.10;1.00;;;;;;4899767;29;19958;-48
2023/08/18 06:03:44;;;;;;;;;;;23.10;1.00;;;;;;4916540;29;19933;-47
2023/08/18 06:06:11;;;;;;;;;;;23.10;1.00;;;;;;4916713;29;20290;-45
2023/08/18 06:08:38;;;;;;;;;;;23.00;1.00;;;;;;4916815;29;19923;-45
2023/08/18 06:11:05;;;;;;;;;;;23.00;1.00;;;;;;4915933;29;19979;-45
2023/08/18 06:13:31;;;;;;;;;;;23.00;1.00;;;;;;4916638;29;20410;-45
2023/08/18 06:16:02;;;;;;;;;;;23.00;1.00;;;;;;4914696;29;20498;-46
2023/08/18 06:18:29;;;;;;;;;;;23.10;1.00;;;;;;4911061;29;20030;-46
2023/08/18 06:20:56;;;;;;;;;;;23.10;1.00;;;;;;4916268;29;20037;-51
2023/08/18 06:23:22;;;;;;;;;;;23.00;1.00;;;;;;4899889;29;20017;-45
2023/08/18 06:25:49;;;;;;;;;;;23.00;1.00;;;;;;4915657;29;19923;-48
2023/08/18 06:28:16;;;;;;;;;;;23.00;1.00;;;;;;4947710;23;20019;-47
2023/08/18 06:30:43;;;;;;;;;;;23.00;1.00;;;;;;4896195;29;19966;-51
2023/08/18 06:33:09;;;;;;;;;;;23.00;1.00;;;;;;4897259;29;19924;-46
2023/08/18 06:35:36;;;;;;;;;;;23.00;1.00;;;;;;4897906;29;20018;-45
2023/08/18 06:38:03;;;;;;;;;;;23.00;1.00;;;;;;4897188;29;19927;-49
2023/08/18 06:40:30;;;;;;;;;;;23.00;1.00;;;;;;4897352;29;19923;-48
2023/08/18 06:42:56;;;;;;;;;;;23.00;1.00;;;;;;4896945;29;19979;-46
2023/08/18 06:45:23;;;;;;;;;;;23.00;1.00;;;;;;4897294;29;19933;-46
2023/08/18 06:47:50;;;;;;;;;;;23.00;1.00;;;;;;4897077;29;19962;-46
2023/08/18 06:50:17;;;;;;;;;;;23.00;1.00;;;;;;4897564;29;19972;-48
2023/08/18 06:52:44;;;;;;;;;;;23.00;1.00;;;;;;4896946;29;19924;-46
2023/08/18 06:55:14;;;;;;;;;;;23.00;1.00;;;;;;4896968;29;19946;-45
2023/08/18 06:57:50;;;;;;;;;;;23.00;1.00;;;;;;4897204;29;19923;-45
2023/08/18 07:00:19;;;;;;;;;;;23.00;1.00;;;;;;4897671;29;20010;-45
2023/08/18 07:02:49;;;;;;;;;;;23.00;1.00;;;;;;4896965;29;19956;-45
2023/08/18 07:05:17;;;;;;;;;;;23.00;1.00;;;;;;4897132;29;19963;-47
2023/08/18 07:07:44;;;;;;;;;;;23.00;1.00;;;;;;4904207;29;19923;-45
2023/08/18 07:10:12;;;;;;;;;;;23.00;1.00;;;;;;4897300;29;20427;-46
2023/08/18 07:12:38;;;;;;;;;;;23.00;1.00;;;;;;4896956;29;19927;-53
2023/08/18 07:15:06;;;;;;;;;;;23.00;1.00;;;;;;4897099;29;19924;-45
2023/08/18 07:17:33;;;;;;;;;;;23.00;1.00;;;;;;4896868;29;19927;-47
2023/08/18 07:20:00;;;;;;;;;;;23.00;1.00;;;;;;4897028;29;20030;-47
2023/08/18 07:22:27;;;;;;;;;;;23.00;1.00;;;;;;4904725;29;19924;-46
2023/08/18 07:24:54;;;;;;;;;;;23.00;1.00;;;;;;4896982;29;19923;-45
2023/08/18 07:27:21;;;;;;;;;;;23.00;1.00;;;;;;4897054;29;20352;-47
2023/08/18 07:29:48;;;;;;;;;;;23.00;1.00;;;;;;4973586;23;19941;-46
2023/08/18 07:32:15;;;;;;;;;;;23.00;1.00;;;;;;4878960;29;19923;-45
2023/08/18 07:34:42;;;;;;;;;;;23.00;1.00;;;;;;4894207;29;19924;-45
2023/08/18 07:37:09;;;;;;;;;;;23.00;1.00;;;;;;4877881;29;20452;-48
2023/08/18 07:39:36;;;;;;;;;;;23.00;1.00;;;;;;4880476;29;20340;-47
2023/08/18 07:42:03;;;;;;;;;;;22.90;1.00;;;;;;4880328;29;19928;-47
2023/08/18 07:44:30;;;;;;;;;;;23.00;1.00;;;;;;4880721;29;20183;-46
2023/08/18 07:46:57;;;;;;;;;;;23.00;1.00;;;;;;4872866;29;19967;-46
2023/08/18 07:49:24;;;;;;;;;;;23.00;1.00;;;;;;4880535;29;19930;-46
2023/08/18 07:51:50;;;;;;;;;;;22.90;1.00;;;;;;4880389;29;19930;-45
2023/08/18 07:54:17;;;;;;;;;;;23.00;1.00;;;;;;4880303;29;20151;-45
2023/08/18 07:56:44;;;;;;;;;;;23.00;1.00;;;;;;4880345;29;19924;-47
2023/08/18 07:59:10;;;;;;;;;;;23.00;1.00;;;;;;4880308;29;20010;-46
2023/08/18 08:01:37;;;;;;;;;;;23.00;1.00;;;;;;4881021;29;19959;-47
2023/08/18 08:04:04;;;;;;;;;;;23.00;1.00;;;;;;4880099;29;19928;-46
2023/08/18 08:06:31;;;;;;;;;;;23.00;1.00;;;;;;4872929;29;20022;-45
2023/08/18 08:08:58;;;;;;;;;;;23.00;1.00;;;;;;4880125;29;20475;-45
2023/08/18 08:11:25;;;;;;;;;;;23.00;1.00;;;;;;4879975;29;19962;-46
2023/08/18 08:13:51;;;;;;;;;;;22.90;1.00;;;;;;4880138;29;19931;-46
2023/08/18 08:16:18;;;;;;;;;;;23.00;1.00;;;;;;4863766;29;20355;-46
2023/08/18 08:18:45;;;;;;;;;;;22.90;1.00;;;;;;4880290;29;19931;-46
2023/08/18 08:21:11;;;;;;;;;;;22.90;1.00;;;;;;4879551;29;19931;-46
2023/08/18 08:23:38;;;;;;;;;;;22.90;1.00;;;;;;4877584;29;20018;-45
2023/08/18 08:26:05;;;;;;;;;;;22.90;1.00;;;;;;4880309;29;19924;-46
2023/08/18 08:28:32;;;;;;;;;;;22.90;1.00;;;;;;4863742;29;19963;-46
2023/08/18 08:33:38;;;;;;;;;;;22.90;1.00;;;;;;4886809;29;19950;-44
2023/08/18 08:36:05;;;;;;;;;;;22.90;1.00;;;;;;4880975;29;19958;-47
2023/08/18 08:38:32;;;;;;;;;;;22.90;1.00;;;;;;4880779;29;19931;-45
2023/08/18 08:40:59;;;;;;;;;;;22.90;1.00;;;;;;4880154;29;19928;-44
2023/08/18 08:43:26;;;;;;;;;;;22.90;1.00;;;;;;4873466;29;20373;-45
2023/08/18 08:45:53;;;;;;;;;;;22.90;1.00;;;;;;4880822;29;20010;-47
2023/08/18 08:48:21;;;;;;;;;;;22.90;1.00;;;;;;4880738;29;19930;-45
2023/08/18 08:50:52;;;;;;;;;;;22.90;1.00;;;;;;4880590;29;19924;-45
2023/08/18 08:53:24;;;;;;;;;;;22.90;1.00;;;;;;4881878;29;19924;-48
2023/08/18 08:55:52;;;;;;;;;;;22.90;1.00;;;;;;4881747;29;20315;-47
2023/08/18 08:58:18;;;;;;;;;;;22.90;1.00;;;;;;4886559;29;19987;-48
2023/08/18 09:00:48;;;;;;;;;;;22.90;1.00;;;;;;4885139;29;19924;-48
2023/08/18 09:05:55;;;;;;;;;;;22.90;1.00;;;;;;4866029;29;19924;-45
2023/08/18 09:08:21;;;;;;;;;;;22.90;1.00;;;;;;4865357;29;19930;-47
2023/08/18 09:10:48;;;;;;;;;;;22.90;1.00;;;;;;4862349;29;20015;-46
2023/08/18 09:13:15;;;;;;;;;;;22.90;1.00;;;;;;4861772;29;19928;-48
2023/08/18 09:15:44;;;;;;;;;;;22.90;1.00;;;;;;4861476;29;19931;-50
2023/08/18 09:18:11;;;;;;;;;;;22.90;1.00;;;;;;4861595;29;20350;-51
2023/08/18 09:20:38;;;;;;;;;;;22.90;1.00;;;;;;4860548;29;20325;-47
2023/08/18 09:23:05;;;;;;;;;;;22.90;1.00;;;;;;4853777;29;19928;-52
2023/08/18 09:25:34;;;;;;;;;;;22.90;1.00;;;;;;4861371;29;19924;-48
2023/08/18 09:28:03;;;;;;;;;;;22.90;1.00;;;;;;4860198;29;19988;-46
2023/08/18 09:30:35;;;;;;;;;;;22.90;1.00;;;;;;4861304;29;20432;-49
2023/08/18 09:33:02;;;;;;;;;;;22.90;1.00;;;;;;4860978;29;19924;-50
2023/08/18 09:35:35;;;;;;;;;;;22.90;1.00;;;;;;4989712;23;20340;-47
2023/08/18 09:38:02;;;;;;;;;;;22.90;1.00;;;;;;4891172;29;19927;-45
2023/08/18 09:40:29;;;;;;;;;;;22.90;1.00;;;;;;4898916;29;19969;-46
2023/08/18 09:42:56;;;;;;;;;;;22.90;1.00;;;;;;4906698;29;20362;-49
2023/08/18 09:45:24;;;;;;;;;;;22.90;1.00;;;;;;4894831;29;19931;-48
2023/08/18 09:47:52;;;;;;;;;;;22.90;1.00;;;;;;4898138;29;19923;-48
2023/08/18 09:50:20;;;;;;;;;;;22.80;1.00;;;;;;4915398;29;19923;-45
2023/08/18 09:52:50;;;;;;;;;;;22.80;1.00;;;;;;4902025;29;19999;-51
2023/08/18 09:55:19;;;;;;;;;;;22.80;1.00;;;;;;4887363;29;20303;-45
2023/08/18 09:57:52;;;;;;;;;;;22.80;1.00;;;;;;4893371;29;19966;-47
2023/08/18 10:00:19;;;;;;;;;;;22.80;1.00;;;;;;4896128;29;20045;-47
2023/08/18 10:02:49;;;;;;;;;;;22.80;1.00;;;;;;4893344;29;20392;-48
2023/08/18 10:05:16;;;;;;;;;;;22.80;1.00;;;;;;4892783;29;20018;-52
2023/08/18 10:07:42;;;;;;;;;;;22.80;1.00;;;;;;4891091;29;20046;-48
2023/08/18 10:10:09;;;;;;;;;;;22.80;1.00;;;;;;4895909;29;20426;-48
2023/08/18 10:12:36;;;;;;;;;;;22.80;1.00;;;;;;4895516;29;19923;-48
2023/08/18 10:15:03;;;;;;;;;;;22.80;1.00;;;;;;4892351;29;20287;-49
2023/08/18 10:17:30;;;;;;;;;;;22.80;1.00;;;;;;4894319;29;20421;-49
2023/08/18 10:20:00;;;;;;;;;;;22.80;1.00;;;;;;4894012;29;19924;-52
2023/08/18 10:22:28;;;;;;;;;;;22.80;1.00;;;;;;4897322;29;19967;-49
2023/08/18 10:24:56;;;;;;;;;;;22.80;1.00;;;;;;4890226;29;19931;-49
2023/08/18 10:27:26;;;;;;;;;;;22.80;1.00;;;;;;4891457;29;20379;-52
2023/08/18 10:29:58;;;;;;;;;;;22.80;1.00;;;;;;4891471;29;19929;-50
2023/08/18 10:32:25;;;;;;;;;;;22.80;1.00;;;;;;4876717;29;20399;-52
2023/08/18 10:37:51;;;;;;;;;;;22.80;1.00;;;;;;5242938;23;19931;-49
2023/08/18 10:40:24;;;;;;;;;;;22.80;1.00;;;;;;4888922;29;20344;-50
2023/08/18 10:42:52;;;;;;;;;;;22.80;1.00;;;;;;4886156;29;19923;-49
2023/08/18 10:45:23;;;;;;;;;;;22.80;1.00;;;;;;4893573;29;19923;-48
2023/08/18 10:47:50;;;;;;;;;;;22.80;1.00;;;;;;4895160;29;20023;-47
2023/08/18 10:50:19;;;;;;;;;;;22.80;1.00;;;;;;4894892;29;19923;-48
2023/08/18 10:52:45;;;;;;;;;;;22.80;1.00;;;;;;4894042;29;19923;-51
2023/08/18 10:55:12;;;;;;;;;;;22.80;1.00;;;;;;4892785;29;19930;-50
2023/08/18 10:57:39;;;;;;;;;;;22.80;1.00;;;;;;4893722;29;19931;-48
2023/08/18 11:00:10;;;;;;;;;;;22.80;1.00;;;;;;4891234;29;19930;-51
2023/08/18 11:02:41;;;;;;;;;;;22.70;1.00;;;;;;4888976;29;20329;-50
2023/08/18 11:05:08;;;;;;;;;;;22.80;1.00;;;;;;4894806;29;19972;-45
2023/08/18 11:07:34;;;;;;;;;;;22.80;1.00;;;;;;4894717;29;19924;-47
2023/08/18 11:10:05;;;;;;;;;;;22.80;1.00;;;;;;5052611;23;20375;-48
2023/08/18 11:12:32;;;;;;;;;;;22.80;1.00;;;;;;4915805;29;20008;-51
2023/08/18 11:14:58;;;;;;;;;;;22.80;1.00;;;;;;4911236;29;19923;-46
2023/08/18 11:17:25;;;;;;;;;;;22.80;1.00;;;;;;4916170;29;20399;-50
2023/08/18 11:19:54;;;;;;;;;;;22.80;1.00;;;;;;4918796;29;19923;-52
2023/08/18 11:22:20;;;;;;;;;;;22.80;1.00;;;;;;4921310;29;19954;-52
2023/08/18 11:24:47;;;;;;;;;;;22.80;1.00;;;;;;4915271;29;20307;-51
2023/08/18 11:27:14;;;;;;;;;;;22.80;1.00;;;;;;4915998;29;19950;-48
2023/08/18 11:29:41;;;;;;;;;;;22.80;1.00;;;;;;4915976;29;19930;-52
2023/08/18 11:32:08;;;;;;;;;;;22.80;1.00;;;;;;4922764;29;20294;-49
2023/08/18 11:34:35;;;;;;;;;;;22.80;1.00;;;;;;4919509;29;19958;-51
2023/08/18 11:37:02;;;;;;;;;;;22.80;1.00;;;;;;4923863;29;20002;-50
2023/08/18 11:39:30;;;;;;;;;;;22.80;1.00;;;;;;4980550;23;19997;-52
2023/08/18 11:41:56;;;;;;;;;;;22.80;1.00;;;;;;4918395;29;19971;-50
2023/08/18 11:44:23;;;;;;;;;;;22.80;1.00;;;;;;4923831;29;20269;-49
2023/08/18 11:46:50;;;;;;;;;;;22.80;1.00;;;;;;4912247;29;19923;-52
2023/08/18 11:49:20;;;;;;;;;;;22.80;1.00;;;;;;4913581;29;19927;-47
2023/08/18 11:52:03;;;;;;;;;;;22.80;1.00;;;;;;4908197;29;19958;-46
2023/08/18 11:54:38;;;;;;;;;;;22.80;1.00;;;;;;4913905;29;19923;-52
2023/08/18 11:57:05;;;;;;;;;;;22.80;1.00;;;;;;4907552;29;19927;-49
2023/08/18 11:59:32;;;;;;;;;;;22.80;1.00;;;;;;4911962;29;19930;-51
2023/08/18 12:02:04;;;;;;;;;;;22.80;1.00;;;;;;4914751;29;19931;-52
2023/08/18 12:04:31;;;;;;;;;;;22.80;1.00;;;;;;4916382;29;19923;-53
2023/08/18 12:06:58;;;;;;;;;;;22.80;1.00;;;;;;4883535;29;19927;-51
2023/08/18 12:09:25;;;;;;;;;;;22.80;1.00;;;;;;4927271;23;21363;-50
2023/08/18 12:11:52;;;;;;;;;;;22.80;1.00;;;;;;4896164;29;19924;-51
2023/08/18 12:14:19;;;;;;;;;;;22.80;1.00;;;;;;4905025;29;19930;-51
2023/08/18 12:16:45;;;;;;;;;;;22.80;1.00;;;;;;4896011;29;19927;-52
2023/08/18 12:19:12;;;;;;;;;;;22.80;1.00;;;;;;4897252;29;20014;-52
2023/08/18 12:21:39;;;;;;;;;;;22.80;1.00;;;;;;4892110;29;19942;-49
2023/08/18 12:24:06;;;;;;;;;;;22.80;1.00;;;;;;4898286;29;19930;-51
2023/08/18 12:26:33;;;;;;;;;;;22.80;1.00;;;;;;4898640;29;19923;-51
2023/08/18 12:29:01;;;;;;;;;;;22.80;1.00;;;;;;4899456;29;19923;-51
2023/08/18 12:31:28;;;;;;;;;;;22.80;1.00;;;;;;4896321;29;20018;-50
2023/08/18 12:33:55;;;;;;;;;;;22.80;1.00;;;;;;4899300;29;20526;-52
2023/08/18 12:36:22;;;;;;;;;;;22.80;1.00;;;;;;4891584;29;19950;-52
2023/08/18 12:38:49;;;;;;;;;;;22.80;1.00;;;;;;4896321;29;20471;-50
2023/08/18 12:41:15;;;;;;;;;;;22.80;1.00;;;;;;5060914;23;20022;-50
2023/08/18 12:43:42;;;;;;;;;;;22.80;1.00;;;;;;4878853;29;20110;-49
2023/08/18 12:46:09;;;;;;;;;;;22.80;1.00;;;;;;4880386;29;19955;-51
2023/08/18 12:48:36;;;;;;;;;;;22.80;1.00;;;;;;4880332;29;19924;-51
2023/08/18 12:51:03;;;;;;;;;;;22.90;1.00;;;;;;4880615;29;20284;-51
2023/08/18 12:53:30;;;;;;;;;;;22.90;1.00;;;;;;4880329;29;20399;-48
2023/08/18 12:55:57;;;;;;;;;;;22.90;1.00;;;;;;4876215;29;20281;-51
2023/08/18 12:58:24;;;;;;;;;;;22.90;1.00;;;;;;4880245;29;19962;-50
2023/08/18 13:00:50;;;;;;;;;;;22.90;1.00;;;;;;4880209;29;20384;-53
2023/08/18 13:03:17;;;;;;;;;;;22.90;1.00;;;;;;4880333;29;19930;-51
2023/08/18 13:05:44;;;;;;;;;;;22.90;1.00;;;;;;4880317;29;19927;-52
2023/08/18 13:08:11;;;;;;;;;;;23.00;1.00;;;;;;4880379;29;19923;-52
2023/08/18 13:13:26;;;;;;;;;;;23.00;1.00;;;;;;4975551;23;19970;-50
2023/08/18 13:15:53;;;;;;;;;;;23.00;1.00;;;;;;4899180;29;19989;-53
2023/08/18 13:18:20;;;;;;;;;;;23.00;1.00;;;;;;4892091;29;20007;-52
2023/08/18 13:20:47;;;;;;;;;;;23.00;1.00;;;;;;4889121;29;20029;-51
2023/08/18 13:23:19;;;;;;;;;;;23.00;1.00;;;;;;4892684;29;19976;-54
2023/08/18 13:25:46;;;;;;;;;;;23.00;1.00;;;;;;4895582;29;20443;-46
2023/08/18 13:28:13;;;;;;;;;;;23.00;1.00;;;;;;4892837;29;19932;-53
2023/08/18 13:30:40;;;;;;;;;;;23.00;1.00;;;;;;4893742;29;19931;-46
2023/08/18 13:33:07;;;;;;;;;;;23.00;1.00;;;;;;4898437;29;19923;-53
2023/08/18 13:35:34;;;;;;;;;;;23.00;1.00;;;;;;4892212;29;19923;-54
2023/08/18 13:38:01;;;;;;;;;;;23.00;1.00;;;;;;4892269;29;19931;-50
2023/08/18 13:40:27;;;;;;;;;;;23.00;1.00;;;;;;4895135;29;19923;-52
2023/08/18 13:45:46;;;;;;;;;;;23.00;1.00;;;;;;4878962;29;21031;-51
2023/08/18 13:48:13;;;;;;;;;;;23.00;1.00;;;;;;4878006;29;19962;-53
2023/08/18 13:50:40;;;;;;;;;;;23.00;1.00;;;;;;4876598;29;20280;-46
2023/08/18 13:53:11;;;;;;;;;;;23.10;1.00;;;;;;4875169;29;19924;-50
2023/08/18 13:55:38;;;;;;;;;;;23.00;1.00;;;;;;4873712;29;20014;-50
2023/08/18 13:58:05;;;;;;;;;;;23.10;1.00;;;;;;4876503;29;19938;-47
2023/08/18 14:00:32;;;;;;;;;;;23.10;1.00;;;;;;4875155;29;19928;-52
2023/08/18 14:02:58;;;;;;;;;;;23.10;1.00;;;;;;4875884;29;19924;-50
2023/08/18 14:05:25;;;;;;;;;;;23.10;1.00;;;;;;4878060;29;20431;-53
2023/08/18 14:07:52;;;;;;;;;;;23.10;1.00;;;;;;4875200;29;19930;-53
2023/08/18 14:10:18;;;;;;;;;;;23.10;1.00;;;;;;4879006;29;19970;-53
2023/08/18 14:12:46;;;;;;;;;;;23.10;1.00;;;;;;4878032;29;19923;-52
2023/08/18 14:15:13;;;;;;;;;;;23.10;1.00;;;;;;4873997;29;19999;-52
2023/08/18 14:17:44;;;;;;;;;;;23.10;1.00;;;;;;4876438;29;20479;-50
2023/08/18 14:20:12;;;;;;;;;;;23.10;1.00;;;;;;4876293;29;19924;-50
2023/08/18 14:22:42;;;;;;;;;;;23.10;1.00;;;;;;4876109;29;20018;-51
2023/08/18 14:25:09;;;;;;;;;;;23.10;1.00;;;;;;4878823;29;19934;-50
2023/08/18 14:27:37;;;;;;;;;;;23.10;1.00;;;;;;4876546;29;20325;-51
2023/08/18 14:30:04;;;;;;;;;;;23.10;1.00;;;;;;4877019;29;19928;-52
2023/08/18 14:32:31;;;;;;;;;;;23.10;1.00;;;;;;4875657;29;19928;-52
2023/08/18 14:35:03;;;;;;;;;;;23.10;1.00;;;;;;4873637;29;20357;-53
2023/08/18 14:37:31;;;;;;;;;;;23.10;1.00;;;;;;4872513;29;19940;-50
2023/08/18 14:39:58;;;;;;;;;;;23.10;1.00;;;;;;4873377;29;19928;-53
2023/08/18 14:42:24;;;;;;;;;;;23.10;1.00;;;;;;4873965;29;19943;-53
2023/08/18 14:44:53;;;;;;;;;;;23.10;1.00;;;;;;4871857;29;19923;-53
2023/08/18 14:47:20;;;;;;;;;;;23.10;1.00;;;;;;4875531;29;19930;-53
2023/08/18 14:49:47;;;;;;;;;;;23.10;1.00;;;;;;4877890;29;20392;-51